sensor_id;sensor_type;location;lat;lon;timestamp;P1;durP1;ratioP1;P2;durP2;ratioP2
8735;SDS011;4404;49.308;12.178;2023-09-12T05:47:10;0.60;;;0.60;;
8735;SDS011;4404;49.308;12.178;2023-09-12T05:49:14;0.60;;;0.60;;
8735;SDS011;4404;49.308;12.178;2023-09-12T05:51:20;0.60;;;0.60;;
8735;SDS011;4404;49.308;12.178;2023-09-12T05:53:22;0.60;;;0.60;;
8735;SDS011;4404;49.308;12.178;2023-09-12T05:55:25;0.60;;;0.60;;
8735;SDS011;4404;49.308;12.178;2023-09-12T05:57:27;0.60;;;0.60;;
8735;SDS011;4404;49.308;12.178;2023-09-12T05:59:35;0.60;;;0.60;;
8735;SDS011;4404;49.308;12.178;2023-09-12T06:01:39;0.60;;;0.60;;
8735;SDS011;4404;49.308;12.178;2023-09-12T06:03:43;0.60;;;0.60;;
8735;SDS011;4404;49.308;12.178;2023-09-12T06:05:46;0.60;;;0.60;;
8735;SDS011;4404;49.308;12.178;2023-09-12T06:07:48;0.60;;;0.60;;
8735;SDS011;4404;49.308;12.178;2023-09-12T06:09:49;0.60;;;0.60;;
8735;SDS011;4404;49.308;12.178;2023-09-12T06:11:52;0.60;;;0.60;;
8735;SDS011;4404;49.308;12.178;2023-09-12T06:13:55;0.60;;;0.60;;
8735;SDS011;4404;49.308;12.178;2023-09-12T06:15:58;0.60;;;0.60;;
8735;SDS011;4404;49.308;12.178;2023-09-12T06:18:01;0.60;;;0.60;;
8735;SDS011;4404;49.308;12.178;2023-09-12T06:20:04;0.60;;;0.60;;
8735;SDS011;4404;49.308;12.178;2023-09-12T06:22:08;0.60;;;0.60;;
8735;SDS011;4404;49.308;12.178;2023-09-12T06:24:11;0.60;;;0.60;;
8735;SDS011;4404;49.308;12.178;2023-09-12T06:26:15;0.60;;;0.60;;
8735;SDS011;4404;49.308;12.178;2023-09-12T06:28:24;0.60;;;0.60;;
8735;SDS011;4404;49.308;12.178;2023-09-12T06:30:27;0.70;;;0.70;;
8735;SDS011;4404;49.308;12.178;2023-09-12T06:32:29;0.60;;;0.60;;
8735;SDS011;4404;49.308;12.178;2023-09-12T06:34:32;0.60;;;0.60;;
8735;SDS011;4404;49.308;12.178;2023-09-12T06:36:36;0.60;;;0.60;;
8735;SDS011;4404;49.308;12.178;2023-09-12T06:38:41;0.50;;;0.50;;
8735;SDS011;4404;49.308;12.178;2023-09-12T06:40:43;0.60;;;0.60;;
8735;SDS011;4404;49.308;12.178;2023-09-12T06:42:47;0.60;;;0.60;;
8735;SDS011;4404;49.308;12.178;2023-09-12T06:44:49;0.60;;;0.60;;
8735;SDS011;4404;49.308;12.178;2023-09-12T06:46:52;0.60;;;0.60;;
8735;SDS011;4404;49.308;12.178;2023-09-12T06:48:54;0.60;;;0.60;;
8735;SDS011;4404;49.308;12.178;2023-09-12T06:50:57;0.60;;;0.60;;
8735;SDS011;4404;49.308;12.178;2023-09-12T06:53:00;0.60;;;0.60;;
8735;SDS011;4404;49.308;12.178;2023-09-12T06:55:04;0.50;;;0.50;;
8735;SDS011;4404;49.308;12.178;2023-09-12T06:57:07;0.60;;;0.60;;
8735;SDS011;4404;49.308;12.178;2023-09-12T06:59:10;0.60;;;0.60;;
8735;SDS011;4404;49.308;12.178;2023-09-12T07:01:13;0.60;;;0.60;;
8735;SDS011;4404;49.308;12.178;2023-09-12T07:03:15;0.60;;;0.60;;
8735;SDS011;4404;49.308;12.178;2023-09-12T07:05:18;0.60;;;0.60;;
8735;SDS011;4404;49.308;12.178;2023-09-12T07:07:20;0.50;;;0.50;;
8735;SDS011;4404;49.308;12.178;2023-09-12T07:09:24;0.60;;;0.60;;
8735;SDS011;4404;49.308;12.178;2023-09-12T07:11:27;0.50;;;0.50;;
8735;SDS011;4404;49.308;12.178;2023-09-12T07:13:29;0.60;;;0.60;;
8735;SDS011;4404;49.308;12.178;2023-09-12T07:15:33;0.50;;;0.50;;
8735;SDS011;4404;49.308;12.178;2023-09-12T07:17:37;0.60;;;0.60;;
8735;SDS011;4404;49.308;12.178;2023-09-12T07:19:39;0.50;;;0.50;;
8735;SDS011;4404;49.308;12.178;2023-09-12T07:21:42;0.60;;;0.60;;
8735;SDS011;4404;49.308;12.178;2023-09-12T07:23:44;0.60;;;0.60;;
8735;SDS011;4404;49.308;12.178;2023-09-12T07:25:50;0.60;;;0.60;;
8735;SDS011;4404;49.308;12.178;2023-09-12T07:27:52;0.50;;;0.50;;
8735;SDS011;4404;49.308;12.178;2023-09-12T07:29:55;0.60;;;0.60;;
8735;SDS011;4404;49.308;12.178;2023-09-12T07:31:57;0.50;;;0.50;;
8735;SDS011;4404;49.308;12.178;2023-09-12T07:34:00;0.60;;;0.60;;
8735;SDS011;4404;49.308;12.178;2023-09-12T07:36:01;0.60;;;0.60;;
8735;SDS011;4404;49.308;12.178;2023-09-12T07:38:04;0.60;;;0.60;;
8735;SDS011;4404;49.308;12.178;2023-09-12T07:40:07;0.50;;;0.50;;
8735;SDS011;4404;49.308;12.178;2023-09-12T07:42:12;0.50;;;0.50;;
8735;SDS011;4404;49.308;12.178;2023-09-12T07:44:15;0.60;;;0.60;;
8735;SDS011;4404;49.308;12.178;2023-09-12T07:46:17;0.60;;;0.60;;
8735;SDS011;4404;49.308;12.178;2023-09-12T07:48:20;0.50;;;0.50;;
8735;SDS011;4404;49.308;12.178;2023-09-12T07:50:21;0.50;;;0.50;;
8735;SDS011;4404;49.308;12.178;2023-09-12T07:52:24;0.50;;;0.50;;
8735;SDS011;4404;49.308;12.178;2023-09-12T07:54:26;0.40;;;0.40;;
8735;SDS011;4404;49.308;12.178;2023-09-12T07:56:30;0.50;;;0.50;;
8735;SDS011;4404;49.308;12.178;2023-09-12T07:58:34;0.50;;;0.50;;
8735;SDS011;4404;49.308;12.178;2023-09-12T08:00:36;0.57;;;0.57;;
8735;SDS011;4404;49.308;12.178;2023-09-12T08:02:39;0.50;;;0.50;;
8735;SDS011;4404;49.308;12.178;2023-09-12T08:04:42;0.50;;;0.50;;
8735;SDS011;4404;49.308;12.178;2023-09-12T08:06:44;0.50;;;0.50;;
8735;SDS011;4404;49.308;12.178;2023-09-12T08:08:46;0.50;;;0.50;;
8735;SDS011;4404;49.308;12.178;2023-09-12T08:10:48;0.50;;;0.50;;
8735;SDS011;4404;49.308;12.178;2023-09-12T08:12:52;0.50;;;0.50;;
8735;SDS011;4404;49.308;12.178;2023-09-12T08:14:57;0.50;;;0.50;;
8735;SDS011;4404;49.308;12.178;2023-09-12T08:17:00;0.45;;;0.45;;
8735;SDS011;4404;49.308;12.178;2023-09-12T08:19:03;0.45;;;0.45;;
8735;SDS011;4404;49.308;12.178;2023-09-12T08:21:05;0.43;;;0.43;;
8735;SDS011;4404;49.308;12.178;2023-09-12T08:23:08;0.40;;;0.40;;
8735;SDS011;4404;49.308;12.178;2023-09-12T08:25:11;0.50;;;0.50;;
8735;SDS011;4404;49.308;12.178;2023-09-12T08:27:14;0.50;;;0.50;;
8735;SDS011;4404;49.308;12.178;2023-09-12T08:29:17;0.47;;;0.47;;
8735;SDS011;4404;49.308;12.178;2023-09-12T08:31:20;0.40;;;0.40;;
8735;SDS011;4404;49.308;12.178;2023-09-12T08:33:23;0.40;;;0.40;;
8735;SDS011;4404;49.308;12.178;2023-09-12T08:35:25;0.45;;;0.45;;
8735;SDS011;4404;49.308;12.178;2023-09-12T08:37:27;0.40;;;0.40;;
8735;SDS011;4404;49.308;12.178;2023-09-12T08:39:40;0.40;;;0.40;;
8735;SDS011;4404;49.308;12.178;2023-09-12T08:41:45;0.40;;;0.40;;
8735;SDS011;4404;49.308;12.178;2023-09-12T08:43:48;0.40;;;0.40;;
8735;SDS011;4404;49.308;12.178;2023-09-12T08:45:51;0.60;;;0.60;;
8735;SDS011;4404;49.308;12.178;2023-09-12T08:47:55;0.40;;;0.40;;
8735;SDS011;4404;49.308;12.178;2023-09-12T08:50:03;0.30;;;0.30;;
8735;SDS011;4404;49.308;12.178;2023-09-12T08:52:07;0.30;;;0.30;;
8735;SDS011;4404;49.308;12.178;2023-09-12T08:54:10;0.40;;;0.40;;
8735;SDS011;4404;49.308;12.178;2023-09-12T08:56:11;0.40;;;0.40;;
8735;SDS011;4404;49.308;12.178;2023-09-12T08:58:14;0.30;;;0.30;;
8735;SDS011;4404;49.308;12.178;2023-09-12T09:00:17;0.30;;;0.30;;
8735;SDS011;4404;49.308;12.178;2023-09-12T09:02:21;0.50;;;0.50;;
8735;SDS011;4404;49.308;12.178;2023-09-12T09:04:25;0.38;;;0.38;;
8735;SDS011;4404;49.308;12.178;2023-09-12T09:06:31;0.30;;;0.30;;
8735;SDS011;4404;49.308;12.178;2023-09-12T09:08:37;0.30;;;0.30;;
8735;SDS011;4404;49.308;12.178;2023-09-12T09:10:49;0.30;;;0.30;;
8735;SDS011;4404;49.308;12.178;2023-09-12T09:12:57;0.38;;;0.38;;
8735;SDS011;4404;49.308;12.178;2023-09-12T09:15:00;0.30;;;0.30;;
8735;SDS011;4404;49.308;12.178;2023-09-12T09:17:22;0.30;;;0.30;;
8735;SDS011;4404;49.308;12.178;2023-09-12T09:19:31;0.40;;;0.40;;
8735;SDS011;4404;49.308;12.178;2023-09-12T09:21:47;0.40;;;0.40;;
8735;SDS011;4404;49.308;12.178;2023-09-12T09:23:50;0.30;;;0.30;;
8735;SDS011;4404;49.308;12.178;2023-09-12T09:25:54;0.30;;;0.30;;
8735;SDS011;4404;49.308;12.178;2023-09-12T09:27:56;0.30;;;0.30;;
8735;SDS011;4404;49.308;12.178;2023-09-12T09:29:59;0.20;;;0.20;;
8735;SDS011;4404;49.308;12.178;2023-09-12T09:32:01;0.32;;;0.32;;
8735;SDS011;4404;49.308;12.178;2023-09-12T09:34:10;0.20;;;0.20;;
8735;SDS011;4404;49.308;12.178;2023-09-12T09:36:14;0.20;;;0.20;;
8735;SDS011;4404;49.308;12.178;2023-09-12T09:38:18;0.30;;;0.30;;
8735;SDS011;4404;49.308;12.178;2023-09-12T09:40:23;0.30;;;0.30;;
8735;SDS011;4404;49.308;12.178;2023-09-12T09:42:28;0.30;;;0.30;;
8735;SDS011;4404;49.308;12.178;2023-09-12T09:44:31;0.30;;;0.30;;
8735;SDS011;4404;49.308;12.178;2023-09-12T09:46:34;0.30;;;0.30;;
8735;SDS011;4404;49.308;12.178;2023-09-12T09:48:39;0.20;;;0.20;;
8735;SDS011;4404;49.308;12.178;2023-09-12T09:50:50;0.30;;;0.30;;
8735;SDS011;4404;49.308;12.178;2023-09-12T09:52:56;0.30;;;0.30;;
8735;SDS011;4404;49.308;12.178;2023-09-12T09:54:59;0.30;;;0.30;;
8735;SDS011;4404;49.308;12.178;2023-09-12T09:57:01;0.20;;;0.20;;
8735;SDS011;4404;49.308;12.178;2023-09-12T09:59:06;0.30;;;0.30;;
8735;SDS011;4404;49.308;12.178;2023-09-12T10:01:07;0.20;;;0.20;;
8735;SDS011;4404;49.308;12.178;2023-09-12T10:03:12;0.20;;;0.20;;
8735;SDS011;4404;49.308;12.178;2023-09-12T10:05:16;0.20;;;0.20;;
8735;SDS011;4404;49.308;12.178;2023-09-12T10:07:20;0.30;;;0.30;;
8735;SDS011;4404;49.308;12.178;2023-09-12T10:09:25;0.20;;;0.20;;
8735;SDS011;4404;49.308;12.178;2023-09-12T10:11:28;0.30;;;0.30;;
8735;SDS011;4404;49.308;12.178;2023-09-12T10:13:34;0.20;;;0.20;;
8735;SDS011;4404;49.308;12.178;2023-09-12T10:15:44;0.20;;;0.20;;
8735;SDS011;4404;49.308;12.178;2023-09-12T10:17:56;0.20;;;0.20;;
8735;SDS011;4404;49.308;12.178;2023-09-12T10:20:02;0.30;;;0.30;;
8735;SDS011;4404;49.308;12.178;2023-09-12T10:22:17;0.22;;;0.22;;
8735;SDS011;4404;49.308;12.178;2023-09-12T10:24:23;0.20;;;0.20;;
8735;SDS011;4404;49.308;12.178;2023-09-12T10:26:29;0.30;;;0.30;;
8735;SDS011;4404;49.308;12.178;2023-09-12T10:28:33;0.20;;;0.20;;
8735;SDS011;4404;49.308;12.178;2023-09-12T10:30:35;0.20;;;0.20;;
8735;SDS011;4404;49.308;12.178;2023-09-12T10:32:45;0.22;;;0.22;;
8735;SDS011;4404;49.308;12.178;2023-09-12T10:34:49;0.30;;;0.30;;
8735;SDS011;4404;49.308;12.178;2023-09-12T10:36:53;0.20;;;0.20;;
8735;SDS011;4404;49.308;12.178;2023-09-12T10:39:05;0.30;;;0.30;;
8735;SDS011;4404;49.308;12.178;2023-09-12T10:41:11;0.22;;;0.22;;
8735;SDS011;4404;49.308;12.178;2023-09-12T10:43:15;0.20;;;0.20;;
8735;SDS011;4404;49.308;12.178;2023-09-12T10:45:17;0.22;;;0.22;;
8735;SDS011;4404;49.308;12.178;2023-09-12T10:47:22;0.20;;;0.20;;
8735;SDS011;4404;49.308;12.178;2023-09-12T10:49:25;0.30;;;0.30;;
8735;SDS011;4404;49.308;12.178;2023-09-12T10:51:34;0.20;;;0.20;;
8735;SDS011;4404;49.308;12.178;2023-09-12T10:53:44;0.30;;;0.30;;
8735;SDS011;4404;49.308;12.178;2023-09-12T10:55:58;0.20;;;0.20;;
8735;SDS011;4404;49.308;12.178;2023-09-12T10:58:44;0.30;;;0.30;;
8735;SDS011;4404;49.308;12.178;2023-09-12T11:01:23;0.28;;;0.28;;
8735;SDS011;4404;49.308;12.178;2023-09-12T11:05:50;0.20;;;0.20;;
8735;SDS011;4404;49.308;12.178;2023-09-12T11:07:56;0.22;;;0.22;;
8735;SDS011;4404;49.308;12.178;2023-09-12T11:12:35;0.30;;;0.30;;
8735;SDS011;4404;49.308;12.178;2023-09-12T11:14:42;0.20;;;0.20;;
8735;SDS011;4404;49.308;12.178;2023-09-12T11:17:21;0.30;;;0.30;;
8735;SDS011;4404;49.308;12.178;2023-09-12T11:19:25;0.30;;;0.30;;
8735;SDS011;4404;49.308;12.178;2023-09-12T11:21:32;0.30;;;0.30;;
8735;SDS011;4404;49.308;12.178;2023-09-12T11:23:35;0.20;;;0.20;;
8735;SDS011;4404;49.308;12.178;2023-09-12T11:25:39;0.15;;;0.15;;
8735;SDS011;4404;49.308;12.178;2023-09-12T11:27:45;0.30;;;0.30;;
8735;SDS011;4404;49.308;12.178;2023-09-12T11:30:05;0.30;;;0.30;;
8735;SDS011;4404;49.308;12.178;2023-09-12T11:32:08;0.20;;;0.20;;
8735;SDS011;4404;49.308;12.178;2023-09-12T11:34:11;0.30;;;0.30;;
8735;SDS011;4404;49.308;12.178;2023-09-12T11:36:13;0.15;;;0.15;;
8735;SDS011;4404;49.308;12.178;2023-09-12T11:38:18;0.20;;;0.20;;
8735;SDS011;4404;49.308;12.178;2023-09-12T11:40:41;0.20;;;0.20;;
8735;SDS011;4404;49.308;12.178;2023-09-12T11:42:47;0.22;;;0.22;;
8735;SDS011;4404;49.308;12.178;2023-09-12T11:44:51;0.20;;;0.20;;
8735;SDS011;4404;49.308;12.178;2023-09-12T11:46:54;0.20;;;0.20;;
8735;SDS011;4404;49.308;12.178;2023-09-12T11:49:03;0.20;;;0.20;;
8735;SDS011;4404;49.308;12.178;2023-09-12T11:51:06;0.20;;;0.20;;
8735;SDS011;4404;49.308;12.178;2023-09-12T11:53:10;0.20;;;0.20;;
8735;SDS011;4404;49.308;12.178;2023-09-12T11:55:18;0.28;;;0.28;;
8735;SDS011;4404;49.308;12.178;2023-09-12T11:57:24;0.20;;;0.20;;
8735;SDS011;4404;49.308;12.178;2023-09-12T11:59:30;0.20;;;0.20;;
8735;SDS011;4404;49.308;12.178;2023-09-12T12:01:33;0.20;;;0.20;;
8735;SDS011;4404;49.308;12.178;2023-09-12T12:03:35;0.20;;;0.20;;
8735;SDS011;4404;49.308;12.178;2023-09-12T12:05:38;0.10;;;0.10;;
8735;SDS011;4404;49.308;12.178;2023-09-12T12:07:41;0.20;;;0.20;;
8735;SDS011;4404;49.308;12.178;2023-09-12T12:09:46;0.30;;;0.30;;
8735;SDS011;4404;49.308;12.178;2023-09-12T12:11:49;0.20;;;0.20;;
8735;SDS011;4404;49.308;12.178;2023-09-12T12:13:51;0.20;;;0.20;;
8735;SDS011;4404;49.308;12.178;2023-09-12T12:15:55;0.20;;;0.20;;
8735;SDS011;4404;49.308;12.178;2023-09-12T12:17:56;0.20;;;0.20;;
8735;SDS011;4404;49.308;12.178;2023-09-12T12:19:59;0.20;;;0.20;;
8735;SDS011;4404;49.308;12.178;2023-09-12T12:22:01;0.17;;;0.17;;
8735;SDS011;4404;49.308;12.178;2023-09-12T12:24:07;0.20;;;0.20;;
8735;SDS011;4404;49.308;12.178;2023-09-12T12:26:13;0.20;;;0.20;;
8735;SDS011;4404;49.308;12.178;2023-09-12T12:28:15;0.30;;;0.30;;
8735;SDS011;4404;49.308;12.178;2023-09-12T12:30:19;0.20;;;0.20;;
8735;SDS011;4404;49.308;12.178;2023-09-12T12:32:23;0.20;;;0.20;;
8735;SDS011;4404;49.308;12.178;2023-09-12T12:34:25;0.30;;;0.30;;
8735;SDS011;4404;49.308;12.178;2023-09-12T12:36:28;0.30;;;0.30;;
8735;SDS011;4404;49.308;12.178;2023-09-12T12:38:31;0.20;;;0.20;;
8735;SDS011;4404;49.308;12.178;2023-09-12T12:40:37;0.30;;;0.30;;
8735;SDS011;4404;49.308;12.178;2023-09-12T12:42:40;0.20;;;0.20;;
8735;SDS011;4404;49.308;12.178;2023-09-12T12:44:47;0.30;;;0.30;;
8735;SDS011;4404;49.308;12.178;2023-09-12T12:46:55;0.20;;;0.20;;
8735;SDS011;4404;49.308;12.178;2023-09-12T12:48:59;0.28;;;0.28;;
8735;SDS011;4404;49.308;12.178;2023-09-12T12:51:12;0.20;;;0.20;;
8735;SDS011;4404;49.308;12.178;2023-09-12T12:53:16;0.30;;;0.30;;
8735;SDS011;4404;49.308;12.178;2023-09-12T12:55:19;0.30;;;0.30;;
8735;SDS011;4404;49.308;12.178;2023-09-12T12:57:23;0.30;;;0.30;;
8735;SDS011;4404;49.308;12.178;2023-09-12T12:59:25;0.30;;;0.30;;
8735;SDS011;4404;49.308;12.178;2023-09-12T13:01:27;0.30;;;0.30;;
8735;SDS011;4404;49.308;12.178;2023-09-12T13:03:31;0.20;;;0.20;;
8735;SDS011;4404;49.308;12.178;2023-09-12T13:05:35;0.20;;;0.20;;
8735;SDS011;4404;49.308;12.178;2023-09-12T13:07:37;0.20;;;0.20;;
8735;SDS011;4404;49.308;12.178;2023-09-12T13:09:40;0.20;;;0.20;;
8735;SDS011;4404;49.308;12.178;2023-09-12T13:11:42;0.30;;;0.30;;
8735;SDS011;4404;49.308;12.178;2023-09-12T13:13:44;0.28;;;0.28;;
8735;SDS011;4404;49.308;12.178;2023-09-12T13:15:49;0.22;;;0.22;;
8735;SDS011;4404;49.308;12.178;2023-09-12T13:17:52;0.30;;;0.30;;
8735;SDS011;4404;49.308;12.178;2023-09-12T13:19:54;0.20;;;0.20;;
8735;SDS011;4404;49.308;12.178;2023-09-12T13:21:58;0.20;;;0.20;;
8735;SDS011;4404;49.308;12.178;2023-09-12T13:24:00;0.10;;;0.10;;
8735;SDS011;4404;49.308;12.178;2023-09-12T13:26:01;0.10;;;0.10;;
8735;SDS011;4404;49.308;12.178;2023-09-12T13:28:04;0.20;;;0.20;;
8735;SDS011;4404;49.308;12.178;2023-09-12T13:30:08;0.20;;;0.20;;
8735;SDS011;4404;49.308;12.178;2023-09-12T13:32:11;0.20;;;0.20;;
8735;SDS011;4404;49.308;12.178;2023-09-12T13:34:15;0.20;;;0.20;;
8735;SDS011;4404;49.308;12.178;2023-09-12T13:36:18;0.10;;;0.10;;
8735;SDS011;4404;49.308;12.178;2023-09-12T13:38:22;0.10;;;0.10;;
8735;SDS011;4404;49.308;12.178;2023-09-12T13:40:24;0.20;;;0.20;;
8735;SDS011;4404;49.308;12.178;2023-09-12T13:42:28;0.20;;;0.20;;
8735;SDS011;4404;49.308;12.178;2023-09-12T13:44:31;0.20;;;0.20;;
8735;SDS011;4404;49.308;12.178;2023-09-12T13:46:33;0.10;;;0.10;;
8735;SDS011;4404;49.308;12.178;2023-09-12T13:48:37;0.20;;;0.20;;
8735;SDS011;4404;49.308;12.178;2023-09-12T13:50:40;0.20;;;0.20;;
8735;SDS011;4404;49.308;12.178;2023-09-12T13:52:44;0.20;;;0.20;;
8735;SDS011;4404;49.308;12.178;2023-09-12T13:54:47;0.22;;;0.22;;
8735;SDS011;4404;49.308;12.178;2023-09-12T13:56:50;0.20;;;0.20;;
8735;SDS011;4404;49.308;12.178;2023-09-12T13:58:52;0.20;;;0.20;;
8735;SDS011;4404;49.308;12.178;2023-09-12T14:00:55;0.20;;;0.20;;
8735;SDS011;4404;49.308;12.178;2023-09-12T14:02:57;0.20;;;0.20;;
8735;SDS011;4404;49.308;12.178;2023-09-12T14:05:00;0.20;;;0.20;;
8735;SDS011;4404;49.308;12.178;2023-09-12T14:07:02;0.10;;;0.10;;
8735;SDS011;4404;49.308;12.178;2023-09-12T14:09:04;0.20;;;0.20;;
8735;SDS011;4404;49.308;12.178;2023-09-12T14:11:08;0.20;;;0.20;;
8735;SDS011;4404;49.308;12.178;2023-09-12T14:13:10;0.10;;;0.10;;
8735;SDS011;4404;49.308;12.178;2023-09-12T14:15:11;0.20;;;0.20;;
8735;SDS011;4404;49.308;12.178;2023-09-12T14:17:15;0.20;;;0.20;;
8735;SDS011;4404;49.308;12.178;2023-09-12T14:19:18;0.10;;;0.10;;
8735;SDS011;4404;49.308;12.178;2023-09-12T14:21:20;0.10;;;0.10;;
8735;SDS011;4404;49.308;12.178;2023-09-12T14:23:22;0.10;;;0.10;;
8735;SDS011;4404;49.308;12.178;2023-09-12T14:25:24;0.20;;;0.20;;
8735;SDS011;4404;49.308;12.178;2023-09-12T14:27:28;0.20;;;0.20;;
8735;SDS011;4404;49.308;12.178;2023-09-12T14:29:29;0.20;;;0.20;;
8735;SDS011;4404;49.308;12.178;2023-09-12T14:31:32;0.20;;;0.20;;
8735;SDS011;4404;49.308;12.178;2023-09-12T14:33:36;0.20;;;0.20;;
8735;SDS011;4404;49.308;12.178;2023-09-12T14:35:39;0.20;;;0.20;;
8735;SDS011;4404;49.308;12.178;2023-09-12T14:37:42;0.20;;;0.20;;
8735;SDS011;4404;49.308;12.178;2023-09-12T14:39:44;0.20;;;0.20;;
8735;SDS011;4404;49.308;12.178;2023-09-12T14:41:46;0.20;;;0.20;;
8735;SDS011;4404;49.308;12.178;2023-09-12T14:43:53;0.20;;;0.20;;
8735;SDS011;4404;49.308;12.178;2023-09-12T14:45:55;0.20;;;0.20;;
8735;SDS011;4404;49.308;12.178;2023-09-12T14:47:58;0.22;;;0.22;;
8735;SDS011;4404;49.308;12.178;2023-09-12T14:50:00;0.20;;;0.20;;
8735;SDS011;4404;49.308;12.178;2023-09-12T14:52:03;0.30;;;0.30;;
8735;SDS011;4404;49.308;12.178;2023-09-12T14:54:05;0.20;;;0.20;;
8735;SDS011;4404;49.308;12.178;2023-09-12T14:56:08;0.20;;;0.20;;
8735;SDS011;4404;49.308;12.178;2023-09-12T14:58:10;0.20;;;0.20;;
8735;SDS011;4404;49.308;12.178;2023-09-12T15:00:14;0.28;;;0.28;;
8735;SDS011;4404;49.308;12.178;2023-09-12T15:02:17;0.20;;;0.20;;
8735;SDS011;4404;49.308;12.178;2023-09-12T15:04:19;0.28;;;0.28;;
8735;SDS011;4404;49.308;12.178;2023-09-12T15:06:22;0.20;;;0.20;;
8735;SDS011;4404;49.308;12.178;2023-09-12T15:08:25;0.20;;;0.20;;
8735;SDS011;4404;49.308;12.178;2023-09-12T15:10:28;0.20;;;0.20;;
8735;SDS011;4404;49.308;12.178;2023-09-12T15:12:30;0.20;;;0.20;;
8735;SDS011;4404;49.308;12.178;2023-09-12T15:14:33;0.20;;;0.20;;
8735;SDS011;4404;49.308;12.178;2023-09-12T15:16:37;0.20;;;0.20;;
8735;SDS011;4404;49.308;12.178;2023-09-12T15:18:39;0.30;;;0.30;;
8735;SDS011;4404;49.308;12.178;2023-09-12T15:20:42;0.30;;;0.30;;
8735;SDS011;4404;49.308;12.178;2023-09-12T15:22:44;0.20;;;0.20;;
8735;SDS011;4404;49.308;12.178;2023-09-12T15:24:46;0.20;;;0.20;;
8735;SDS011;4404;49.308;12.178;2023-09-12T15:26:49;0.20;;;0.20;;
8735;SDS011;4404;49.308;12.178;2023-09-12T15:28:51;0.20;;;0.20;;
8735;SDS011;4404;49.308;12.178;2023-09-12T15:30:54;0.20;;;0.20;;
8735;SDS011;4404;49.308;12.178;2023-09-12T15:32:58;0.20;;;0.20;;
8735;SDS011;4404;49.308;12.178;2023-09-12T15:35:00;0.20;;;0.20;;
8735;SDS011;4404;49.308;12.178;2023-09-12T15:37:06;0.28;;;0.28;;
8735;SDS011;4404;49.308;12.178;2023-09-12T15:39:10;0.25;;;0.25;;
8735;SDS011;4404;49.308;12.178;2023-09-12T15:41:13;0.20;;;0.20;;
8735;SDS011;4404;49.308;12.178;2023-09-12T15:43:16;0.20;;;0.20;;
8735;SDS011;4404;49.308;12.178;2023-09-12T15:45:17;0.20;;;0.20;;
8735;SDS011;4404;49.308;12.178;2023-09-12T15:47:20;0.20;;;0.20;;
8735;SDS011;4404;49.308;12.178;2023-09-12T15:49:24;0.20;;;0.20;;
8735;SDS011;4404;49.308;12.178;2023-09-12T15:51:26;0.20;;;0.20;;
8735;SDS011;4404;49.308;12.178;2023-09-12T15:53:28;0.30;;;0.30;;
8735;SDS011;4404;49.308;12.178;2023-09-12T15:55:31;0.20;;;0.20;;
8735;SDS011;4404;49.308;12.178;2023-09-12T15:57:33;0.20;;;0.20;;
8735;SDS011;4404;49.308;12.178;2023-09-12T15:59:37;0.20;;;0.20;;
8735;SDS011;4404;49.308;12.178;2023-09-12T16:01:39;0.20;;;0.20;;
8735;SDS011;4404;49.308;12.178;2023-09-12T16:03:41;0.20;;;0.20;;
8735;SDS011;4404;49.308;12.178;2023-09-12T16:05:50;0.20;;;0.20;;
8735;SDS011;4404;49.308;12.178;2023-09-12T16:07:52;0.30;;;0.30;;
8735;SDS011;4404;49.308;12.178;2023-09-12T16:09:55;0.20;;;0.20;;
8735;SDS011;4404;49.308;12.178;2023-09-12T16:11:57;0.20;;;0.20;;
8735;SDS011;4404;49.308;12.178;2023-09-12T16:14:02;0.20;;;0.20;;
8735;SDS011;4404;49.308;12.178;2023-09-12T16:16:05;0.22;;;0.22;;
8735;SDS011;4404;49.308;12.178;2023-09-12T16:18:11;0.20;;;0.20;;
8735;SDS011;4404;49.308;12.178;2023-09-12T16:20:13;0.20;;;0.20;;
8735;SDS011;4404;49.308;12.178;2023-09-12T16:22:19;0.30;;;0.30;;
8735;SDS011;4404;49.308;12.178;2023-09-12T16:24:21;0.20;;;0.20;;
8735;SDS011;4404;49.308;12.178;2023-09-12T16:26:24;0.30;;;0.30;;
8735;SDS011;4404;49.308;12.178;2023-09-12T16:28:26;0.20;;;0.20;;
8735;SDS011;4404;49.308;12.178;2023-09-12T16:30:29;0.20;;;0.20;;
8735;SDS011;4404;49.308;12.178;2023-09-12T16:32:31;0.22;;;0.22;;
8735;SDS011;4404;49.308;12.178;2023-09-12T16:34:33;0.10;;;0.10;;
8735;SDS011;4404;49.308;12.178;2023-09-12T16:36:36;0.20;;;0.20;;
8735;SDS011;4404;49.308;12.178;2023-09-12T16:38:40;0.28;;;0.28;;
8735;SDS011;4404;49.308;12.178;2023-09-12T16:40:45;0.30;;;0.30;;
8735;SDS011;4404;49.308;12.178;2023-09-12T16:42:49;0.30;;;0.30;;
8735;SDS011;4404;49.308;12.178;2023-09-12T16:44:51;0.30;;;0.30;;
8735;SDS011;4404;49.308;12.178;2023-09-12T16:46:53;0.30;;;0.30;;
8735;SDS011;4404;49.308;12.178;2023-09-12T16:48:56;0.40;;;0.40;;
8735;SDS011;4404;49.308;12.178;2023-09-12T16:50:58;0.45;;;0.45;;
8735;SDS011;4404;49.308;12.178;2023-09-12T16:53:01;0.38;;;0.38;;
8735;SDS011;4404;49.308;12.178;2023-09-12T16:55:06;0.40;;;0.40;;
8735;SDS011;4404;49.308;12.178;2023-09-12T16:57:10;0.30;;;0.30;;
8735;SDS011;4404;49.308;12.178;2023-09-12T16:59:14;0.30;;;0.30;;
8735;SDS011;4404;49.308;12.178;2023-09-12T17:01:16;0.30;;;0.30;;
8735;SDS011;4404;49.308;12.178;2023-09-12T17:03:19;0.30;;;0.30;;
8735;SDS011;4404;49.308;12.178;2023-09-12T17:05:22;0.30;;;0.30;;
8735;SDS011;4404;49.308;12.178;2023-09-12T17:07:26;0.30;;;0.30;;
8735;SDS011;4404;49.308;12.178;2023-09-12T17:09:28;0.15;;;0.15;;
8735;SDS011;4404;49.308;12.178;2023-09-12T17:11:32;0.20;;;0.20;;
8735;SDS011;4404;49.308;12.178;2023-09-12T17:13:35;0.20;;;0.20;;
8735;SDS011;4404;49.308;12.178;2023-09-12T17:15:37;0.20;;;0.20;;
8735;SDS011;4404;49.308;12.178;2023-09-12T17:17:39;0.30;;;0.30;;
8735;SDS011;4404;49.308;12.178;2023-09-12T17:19:42;0.22;;;0.22;;
8735;SDS011;4404;49.308;12.178;2023-09-12T17:21:47;0.30;;;0.30;;
8735;SDS011;4404;49.308;12.178;2023-09-12T17:23:53;0.70;;;0.70;;
8735;SDS011;4404;49.308;12.178;2023-09-12T17:26:06;0.50;;;0.50;;
8735;SDS011;4404;49.308;12.178;2023-09-12T17:31:06;0.40;;;0.40;;
8735;SDS011;4404;49.308;12.178;2023-09-12T17:33:08;0.20;;;0.20;;
8735;SDS011;4404;49.308;12.178;2023-09-12T17:35:11;0.30;;;0.30;;
8735;SDS011;4404;49.308;12.178;2023-09-12T17:37:13;0.30;;;0.30;;
8735;SDS011;4404;49.308;12.178;2023-09-12T17:39:16;0.30;;;0.30;;
8735;SDS011;4404;49.308;12.178;2023-09-12T17:41:18;0.30;;;0.30;;
8735;SDS011;4404;49.308;12.178;2023-09-12T17:43:21;0.40;;;0.40;;
8735;SDS011;4404;49.308;12.178;2023-09-12T17:45:25;0.40;;;0.40;;
8735;SDS011;4404;49.308;12.178;2023-09-12T17:47:31;0.30;;;0.30;;
8735;SDS011;4404;49.308;12.178;2023-09-12T17:49:35;0.30;;;0.30;;
8735;SDS011;4404;49.308;12.178;2023-09-12T17:51:37;0.30;;;0.30;;
8735;SDS011;4404;49.308;12.178;2023-09-12T17:53:39;0.30;;;0.30;;
8735;SDS011;4404;49.308;12.178;2023-09-12T17:55:43;0.20;;;0.20;;
8735;SDS011;4404;49.308;12.178;2023-09-12T17:57:45;0.30;;;0.30;;
8735;SDS011;4404;49.308;12.178;2023-09-12T17:59:48;0.30;;;0.30;;
8735;SDS011;4404;49.308;12.178;2023-09-12T18:01:53;0.30;;;0.30;;
8735;SDS011;4404;49.308;12.178;2023-09-12T18:03:55;0.30;;;0.30;;
8735;SDS011;4404;49.308;12.178;2023-09-12T18:05:57;0.30;;;0.30;;
8735;SDS011;4404;49.308;12.178;2023-09-12T18:08:00;0.22;;;0.22;;
8735;SDS011;4404;49.308;12.178;2023-09-12T18:10:03;0.30;;;0.30;;
8735;SDS011;4404;49.308;12.178;2023-09-12T18:12:07;0.40;;;0.40;;
8735;SDS011;4404;49.308;12.178;2023-09-12T18:14:09;0.60;;;0.60;;
8735;SDS011;4404;49.308;12.178;2023-09-12T18:16:11;0.70;;;0.70;;
8735;SDS011;4404;49.308;12.178;2023-09-12T18:18:18;0.70;;;0.70;;
8735;SDS011;4404;49.308;12.178;2023-09-12T18:20:20;0.70;;;0.70;;
8735;SDS011;4404;49.308;12.178;2023-09-12T18:22:22;0.80;;;0.80;;
8735;SDS011;4404;49.308;12.178;2023-09-12T18:24:25;0.40;;;0.40;;
8735;SDS011;4404;49.308;12.178;2023-09-12T18:26:27;0.40;;;0.40;;
8735;SDS011;4404;49.308;12.178;2023-09-12T18:28:38;0.40;;;0.40;;
8735;SDS011;4404;49.308;12.178;2023-09-12T18:30:42;0.55;;;0.55;;
8735;SDS011;4404;49.308;12.178;2023-09-12T18:32:44;0.50;;;0.50;;